sensor_id;sensor_type;location;lat;lon;timestamp;temperature;humidity
24638;DHT22;12773;50.162;8.548;2023-07-13T00:01:55;19.50;99.90
24638;DHT22;12773;50.162;8.548;2023-07-13T00:04:43;19.60;99.90
24638;DHT22;12773;50.162;8.548;2023-07-13T00:07:30;19.60;99.90
24638;DHT22;12773;50.162;8.548;2023-07-13T00:10:18;19.70;99.90
24638;DHT22;12773;50.162;8.548;2023-07-13T00:13:06;19.80;99.90
24638;DHT22;12773;50.162;8.548;2023-07-13T00:15:54;19.90;99.90
24638;DHT22;12773;50.162;8.548;2023-07-13T00:18:42;19.80;99.90
24638;DHT22;12773;50.162;8.548;2023-07-13T00:21:30;19.80;99.90
24638;DHT22;12773;50.162;8.548;2023-07-13T00:24:18;19.80;99.90
24638;DHT22;12773;50.162;8.548;2023-07-13T00:27:09;19.70;99.90
24638;DHT22;12773;50.162;8.548;2023-07-13T00:29:56;19.70;99.90
24638;DHT22;12773;50.162;8.548;2023-07-13T00:32:44;19.60;99.90
24638;DHT22;12773;50.162;8.548;2023-07-13T00:35:32;19.60;99.90
24638;DHT22;12773;50.162;8.548;2023-07-13T00:38:19;19.70;99.90
24638;DHT22;12773;50.162;8.548;2023-07-13T00:41:07;19.70;99.90
24638;DHT22;12773;50.162;8.548;2023-07-13T00:43:54;19.70;99.90
24638;DHT22;12773;50.162;8.548;2023-07-13T00:46:42;19.70;99.90
24638;DHT22;12773;50.162;8.548;2023-07-13T00:49:32;19.70;99.90
24638;DHT22;12773;50.162;8.548;2023-07-13T00:52:19;19.60;99.90
24638;DHT22;12773;50.162;8.548;2023-07-13T00:55:07;19.60;99.90
24638;DHT22;12773;50.162;8.548;2023-07-13T00:57:56;19.50;99.90
24638;DHT22;12773;50.162;8.548;2023-07-13T01:00:45;19.50;99.90
24638;DHT22;12773;50.162;8.548;2023-07-13T01:03:35;19.50;99.90
24638;DHT22;12773;50.162;8.548;2023-07-13T01:06:23;19.40;99.90
24638;DHT22;12773;50.162;8.548;2023-07-13T01:09:11;19.50;99.90
24638;DHT22;12773;50.162;8.548;2023-07-13T01:11:59;19.50;99.90
24638;DHT22;12773;50.162;8.548;2023-07-13T01:14:46;19.50;99.90
24638;DHT22;12773;50.162;8.548;2023-07-13T01:17:34;19.60;99.90
24638;DHT22;12773;50.162;8.548;2023-07-13T01:20:22;19.50;99.90
24638;DHT22;12773;50.162;8.548;2023-07-13T01:23:11;19.50;99.90
24638;DHT22;12773;50.162;8.548;2023-07-13T01:26:00;19.50;99.90
24638;DHT22;12773;50.162;8.548;2023-07-13T01:28:47;19.40;99.90
24638;DHT22;12773;50.162;8.548;2023-07-13T01:31:36;19.40;99.90
24638;DHT22;12773;50.162;8.548;2023-07-13T01:34:24;19.30;99.90
24638;DHT22;12773;50.162;8.548;2023-07-13T01:37:13;19.20;99.90
24638;DHT22;12773;50.162;8.548;2023-07-13T01:40:00;19.20;99.90
24638;DHT22;12773;50.162;8.548;2023-07-13T01:42:48;19.20;99.90
24638;DHT22;12773;50.162;8.548;2023-07-13T01:45:35;19.20;99.90
24638;DHT22;12773;50.162;8.548;2023-07-13T01:48:23;19.20;99.90
24638;DHT22;12773;50.162;8.548;2023-07-13T01:51:11;19.20;99.90
24638;DHT22;12773;50.162;8.548;2023-07-13T01:53:59;19.20;99.90
24638;DHT22;12773;50.162;8.548;2023-07-13T01:56:47;19.20;99.90
24638;DHT22;12773;50.162;8.548;2023-07-13T01:59:38;19.00;99.90
24638;DHT22;12773;50.162;8.548;2023-07-13T02:02:24;18.90;99.90
24638;DHT22;12773;50.162;8.548;2023-07-13T02:05:12;19.00;99.90
24638;DHT22;12773;50.162;8.548;2023-07-13T02:08:00;19.00;99.90
24638;DHT22;12773;50.162;8.548;2023-07-13T02:10:48;19.00;99.90
24638;DHT22;12773;50.162;8.548;2023-07-13T02:13:35;19.00;99.90
24638;DHT22;12773;50.162;8.548;2023-07-13T02:16:23;18.90;99.90
24638;DHT22;12773;50.162;8.548;2023-07-13T02:19:10;19.00;99.90
24638;DHT22;12773;50.162;8.548;2023-07-13T02:21:59;19.00;99.90
24638;DHT22;12773;50.162;8.548;2023-07-13T02:24:46;18.90;99.90
24638;DHT22;12773;50.162;8.548;2023-07-13T02:27:33;18.90;99.90
24638;DHT22;12773;50.162;8.548;2023-07-13T02:30:21;18.90;99.90
24638;DHT22;12773;50.162;8.548;2023-07-13T02:33:11;18.90;99.90
24638;DHT22;12773;50.162;8.548;2023-07-13T02:35:58;18.80;99.90
24638;DHT22;12773;50.162;8.548;2023-07-13T02:38:46;18.80;99.90
24638;DHT22;12773;50.162;8.548;2023-07-13T02:41:33;18.70;99.90
24638;DHT22;12773;50.162;8.548;2023-07-13T02:44:21;18.70;99.90
24638;DHT22;12773;50.162;8.548;2023-07-13T02:47:08;18.70;99.90
24638;DHT22;12773;50.162;8.548;2023-07-13T02:49:55;18.60;99.90
24638;DHT22;12773;50.162;8.548;2023-07-13T02:52:43;18.60;99.90
24638;DHT22;12773;50.162;8.548;2023-07-13T02:55:30;18.60;99.90
24638;DHT22;12773;50.162;8.548;2023-07-13T02:58:18;18.60;99.90
24638;DHT22;12773;50.162;8.548;2023-07-13T03:01:10;18.50;99.90
24638;DHT22;12773;50.162;8.548;2023-07-13T03:03:58;18.40;99.90
24638;DHT22;12773;50.162;8.548;2023-07-13T03:06:46;18.40;99.90
24638;DHT22;12773;50.162;8.548;2023-07-13T03:09:34;18.40;99.90
24638;DHT22;12773;50.162;8.548;2023-07-13T03:12:22;18.30;99.90
24638;DHT22;12773;50.162;8.548;2023-07-13T03:15:10;18.40;99.90
24638;DHT22;12773;50.162;8.548;2023-07-13T03:17:57;18.40;99.90
24638;DHT22;12773;50.162;8.548;2023-07-13T03:20:45;18.40;99.90
24638;DHT22;12773;50.162;8.548;2023-07-13T03:23:32;18.50;99.90
24638;DHT22;12773;50.162;8.548;2023-07-13T03:26:20;18.40;99.90
24638;DHT22;12773;50.162;8.548;2023-07-13T03:29:08;18.40;99.90
24638;DHT22;12773;50.162;8.548;2023-07-13T03:31:55;18.30;99.90
24638;DHT22;12773;50.162;8.548;2023-07-13T03:34:43;18.20;99.90
24638;DHT22;12773;50.162;8.548;2023-07-13T03:37:30;18.20;99.90
24638;DHT22;12773;50.162;8.548;2023-07-13T03:40:18;18.20;99.90
24638;DHT22;12773;50.162;8.548;2023-07-13T03:43:05;18.20;99.90
24638;DHT22;12773;50.162;8.548;2023-07-13T03:45:53;18.30;99.90
24638;DHT22;12773;50.162;8.548;2023-07-13T03:48:42;18.30;99.90
24638;DHT22;12773;50.162;8.548;2023-07-13T03:51:30;18.30;99.90
24638;DHT22;12773;50.162;8.548;2023-07-13T03:54:18;18.30;99.90
24638;DHT22;12773;50.162;8.548;2023-07-13T03:57:07;18.20;99.90
24638;DHT22;12773;50.162;8.548;2023-07-13T03:59:55;18.20;99.90
24638;DHT22;12773;50.162;8.548;2023-07-13T04:02:43;18.30;99.90
24638;DHT22;12773;50.162;8.548;2023-07-13T04:05:30;18.30;99.90
24638;DHT22;12773;50.162;8.548;2023-07-13T04:08:17;18.30;99.90
24638;DHT22;12773;50.162;8.548;2023-07-13T04:11:05;18.30;99.90
24638;DHT22;12773;50.162;8.548;2023-07-13T04:13:53;18.40;99.90
24638;DHT22;12773;50.162;8.548;2023-07-13T04:16:41;18.40;99.90
24638;DHT22;12773;50.162;8.548;2023-07-13T04:19:28;18.50;99.90
24638;DHT22;12773;50.162;8.548;2023-07-13T04:22:16;18.40;99.90
24638;DHT22;12773;50.162;8.548;2023-07-13T04:25:03;18.50;99.90
24638;DHT22;12773;50.162;8.548;2023-07-13T04:27:52;18.40;99.90
24638;DHT22;12773;50.162;8.548;2023-07-13T04:30:41;18.40;99.90
24638;DHT22;12773;50.162;8.548;2023-07-13T04:33:29;18.40;99.90
24638;DHT22;12773;50.162;8.548;2023-07-13T04:36:17;18.50;99.90
24638;DHT22;12773;50.162;8.548;2023-07-13T04:39:04;18.50;99.90
24638;DHT22;12773;50.162;8.548;2023-07-13T04:41:53;18.50;99.90
24638;DHT22;12773;50.162;8.548;2023-07-13T04:44:46;18.50;99.90
24638;DHT22;12773;50.162;8.548;2023-07-13T04:47:31;18.50;99.90
24638;DHT22;12773;50.162;8.548;2023-07-13T04:50:19;18.50;99.90
24638;DHT22;12773;50.162;8.548;2023-07-13T04:53:08;18.60;99.90
24638;DHT22;12773;50.162;8.548;2023-07-13T04:55:56;18.60;99.90
24638;DHT22;12773;50.162;8.548;2023-07-13T04:58:45;18.60;99.90
24638;DHT22;12773;50.162;8.548;2023-07-13T05:01:32;18.60;99.90
24638;DHT22;12773;50.162;8.548;2023-07-13T05:04:20;18.70;99.90
24638;DHT22;12773;50.162;8.548;2023-07-13T05:07:08;18.80;99.90
24638;DHT22;12773;50.162;8.548;2023-07-13T05:09:56;18.80;99.90
24638;DHT22;12773;50.162;8.548;2023-07-13T05:12:44;18.90;99.90
24638;DHT22;12773;50.162;8.548;2023-07-13T05:15:32;19.00;99.90
24638;DHT22;12773;50.162;8.548;2023-07-13T05:18:20;19.00;99.90
24638;DHT22;12773;50.162;8.548;2023-07-13T05:21:09;19.00;99.90
24638;DHT22;12773;50.162;8.548;2023-07-13T05:23:59;19.10;99.90
24638;DHT22;12773;50.162;8.548;2023-07-13T05:26:48;19.20;99.90
24638;DHT22;12773;50.162;8.548;2023-07-13T05:29:35;19.30;99.90
24638;DHT22;12773;50.162;8.548;2023-07-13T05:32:23;19.40;99.90
24638;DHT22;12773;50.162;8.548;2023-07-13T05:35:11;19.50;99.90
24638;DHT22;12773;50.162;8.548;2023-07-13T05:37:59;19.40;99.90
24638;DHT22;12773;50.162;8.548;2023-07-13T05:40:47;19.50;99.90
24638;DHT22;12773;50.162;8.548;2023-07-13T05:43:34;19.50;99.90
24638;DHT22;12773;50.162;8.548;2023-07-13T05:46:22;19.60;99.90
24638;DHT22;12773;50.162;8.548;2023-07-13T05:49:09;19.70;99.90
24638;DHT22;12773;50.162;8.548;2023-07-13T05:51:57;19.80;99.90
24638;DHT22;12773;50.162;8.548;2023-07-13T05:54:45;19.80;99.90
24638;DHT22;12773;50.162;8.548;2023-07-13T05:57:32;19.90;99.90
24638;DHT22;12773;50.162;8.548;2023-07-13T06:00:20;20.00;99.90
24638;DHT22;12773;50.162;8.548;2023-07-13T06:03:07;20.10;99.90
24638;DHT22;12773;50.162;8.548;2023-07-13T06:05:55;20.20;99.90
24638;DHT22;12773;50.162;8.548;2023-07-13T06:08:42;20.20;99.90
24638;DHT22;12773;50.162;8.548;2023-07-13T06:11:30;20.30;99.90
24638;DHT22;12773;50.162;8.548;2023-07-13T06:14:17;20.40;99.90
24638;DHT22;12773;50.162;8.548;2023-07-13T06:17:05;20.50;99.90
24638;DHT22;12773;50.162;8.548;2023-07-13T06:19:52;20.60;99.90
24638;DHT22;12773;50.162;8.548;2023-07-13T06:22:40;20.40;99.90
24638;DHT22;12773;50.162;8.548;2023-07-13T06:25:27;20.40;99.90
24638;DHT22;12773;50.162;8.548;2023-07-13T06:28:15;20.60;99.90
24638;DHT22;12773;50.162;8.548;2023-07-13T06:31:05;20.60;99.90
24638;DHT22;12773;50.162;8.548;2023-07-13T06:33:53;20.70;99.90
24638;DHT22;12773;50.162;8.548;2023-07-13T06:36:45;20.80;99.90
24638;DHT22;12773;50.162;8.548;2023-07-13T06:39:29;20.90;99.90
24638;DHT22;12773;50.162;8.548;2023-07-13T06:42:17;20.90;99.90
24638;DHT22;12773;50.162;8.548;2023-07-13T06:45:05;20.90;99.90
24638;DHT22;12773;50.162;8.548;2023-07-13T06:47:53;20.90;99.90
24638;DHT22;12773;50.162;8.548;2023-07-13T06:50:42;20.90;99.90
24638;DHT22;12773;50.162;8.548;2023-07-13T06:53:29;21.00;99.90
24638;DHT22;12773;50.162;8.548;2023-07-13T06:56:17;21.10;99.90
24638;DHT22;12773;50.162;8.548;2023-07-13T06:59:04;21.30;99.90
24638;DHT22;12773;50.162;8.548;2023-07-13T07:01:52;21.40;99.90
24638;DHT22;12773;50.162;8.548;2023-07-13T07:04:45;21.50;99.70
24638;DHT22;12773;50.162;8.548;2023-07-13T07:07:29;21.50;99.90
24638;DHT22;12773;50.162;8.548;2023-07-13T07:10:18;21.50;99.60
24638;DHT22;12773;50.162;8.548;2023-07-13T07:13:25;21.50;99.00
24638;DHT22;12773;50.162;8.548;2023-07-13T07:16:15;21.50;98.80
24638;DHT22;12773;50.162;8.548;2023-07-13T07:19:02;21.70;99.00
24638;DHT22;12773;50.162;8.548;2023-07-13T07:21:50;21.90;98.40
24638;DHT22;12773;50.162;8.548;2023-07-13T07:24:38;22.00;97.10
24638;DHT22;12773;50.162;8.548;2023-07-13T07:27:25;21.90;96.70
24638;DHT22;12773;50.162;8.548;2023-07-13T07:30:15;22.10;97.10
24638;DHT22;12773;50.162;8.548;2023-07-13T07:33:04;22.10;96.30
24638;DHT22;12773;50.162;8.548;2023-07-13T07:35:51;22.10;96.10
24638;DHT22;12773;50.162;8.548;2023-07-13T07:38:41;22.40;96.30
24638;DHT22;12773;50.162;8.548;2023-07-13T07:41:28;22.60;95.80
24638;DHT22;12773;50.162;8.548;2023-07-13T07:44:36;22.70;95.60
24638;DHT22;12773;50.162;8.548;2023-07-13T07:47:23;22.70;95.00
24638;DHT22;12773;50.162;8.548;2023-07-13T07:50:11;22.70;94.60
24638;DHT22;12773;50.162;8.548;2023-07-13T07:52:59;22.80;94.60
24638;DHT22;12773;50.162;8.548;2023-07-13T07:55:48;22.90;94.80
24638;DHT22;12773;50.162;8.548;2023-07-13T07:58:39;23.10;94.20
24638;DHT22;12773;50.162;8.548;2023-07-13T08:01:27;23.10;93.20
24638;DHT22;12773;50.162;8.548;2023-07-13T08:04:17;23.30;92.40
24638;DHT22;12773;50.162;8.548;2023-07-13T08:07:06;23.50;91.70
24638;DHT22;12773;50.162;8.548;2023-07-13T08:09:54;23.30;90.60
24638;DHT22;12773;50.162;8.548;2023-07-13T08:12:42;23.50;91.30
24638;DHT22;12773;50.162;8.548;2023-07-13T08:15:31;23.50;90.30
24638;DHT22;12773;50.162;8.548;2023-07-13T08:18:19;23.80;90.60
24638;DHT22;12773;50.162;8.548;2023-07-13T08:21:08;24.30;90.60
24638;DHT22;12773;50.162;8.548;2023-07-13T08:23:56;24.30;87.30
24638;DHT22;12773;50.162;8.548;2023-07-13T08:26:45;24.20;88.40
24638;DHT22;12773;50.162;8.548;2023-07-13T08:29:32;24.10;87.00
24638;DHT22;12773;50.162;8.548;2023-07-13T08:32:21;24.00;86.20
24638;DHT22;12773;50.162;8.548;2023-07-13T08:35:09;24.00;87.30
24638;DHT22;12773;50.162;8.548;2023-07-13T08:37:57;24.00;87.10
24638;DHT22;12773;50.162;8.548;2023-07-13T08:40:48;23.90;83.60
24638;DHT22;12773;50.162;8.548;2023-07-13T08:46:43;23.70;83.80
24638;DHT22;12773;50.162;8.548;2023-07-13T08:49:33;23.70;86.10
24638;DHT22;12773;50.162;8.548;2023-07-13T08:52:31;23.80;85.90
24638;DHT22;12773;50.162;8.548;2023-07-13T08:55:33;24.10;85.50
24638;DHT22;12773;50.162;8.548;2023-07-13T08:58:22;24.40;87.00
24638;DHT22;12773;50.162;8.548;2023-07-13T09:04:22;24.30;83.00
24638;DHT22;12773;50.162;8.548;2023-07-13T09:10:19;24.50;81.40
24638;DHT22;12773;50.162;8.548;2023-07-13T09:16:19;24.70;78.80
24638;DHT22;12773;50.162;8.548;2023-07-13T09:19:11;24.70;80.10
24638;DHT22;12773;50.162;8.548;2023-07-13T09:21:57;24.80;78.00
24638;DHT22;12773;50.162;8.548;2023-07-13T09:28:24;25.30;73.00
24638;DHT22;12773;50.162;8.548;2023-07-13T09:31:17;25.20;70.10
24638;DHT22;12773;50.162;8.548;2023-07-13T09:34:08;25.40;72.10
24638;DHT22;12773;50.162;8.548;2023-07-13T09:36:56;25.50;70.90
24638;DHT22;12773;50.162;8.548;2023-07-13T09:39:44;25.50;69.80
24638;DHT22;12773;50.162;8.548;2023-07-13T09:42:33;25.70;69.20
24638;DHT22;12773;50.162;8.548;2023-07-13T09:45:28;25.80;69.10
24638;DHT22;12773;50.162;8.548;2023-07-13T09:48:17;26.00;68.70
24638;DHT22;12773;50.162;8.548;2023-07-13T09:51:15;26.00;66.50
24638;DHT22;12773;50.162;8.548;2023-07-13T09:54:03;25.80;65.90
24638;DHT22;12773;50.162;8.548;2023-07-13T09:56:55;25.80;66.70
24638;DHT22;12773;50.162;8.548;2023-07-13T09:59:50;26.40;67.80
24638;DHT22;12773;50.162;8.548;2023-07-13T10:02:38;26.40;65.00
24638;DHT22;12773;50.162;8.548;2023-07-13T10:05:27;26.40;65.50
24638;DHT22;12773;50.162;8.548;2023-07-13T10:08:25;26.60;65.50
24638;DHT22;12773;50.162;8.548;2023-07-13T10:11:20;26.70;64.70
24638;DHT22;12773;50.162;8.548;2023-07-13T10:14:20;26.50;63.90
24638;DHT22;12773;50.162;8.548;2023-07-13T10:17:12;26.40;64.40
24638;DHT22;12773;50.162;8.548;2023-07-13T10:20:03;26.50;64.30
24638;DHT22;12773;50.162;8.548;2023-07-13T10:23:05;26.80;63.50
24638;DHT22;12773;50.162;8.548;2023-07-13T10:25:53;26.80;62.40
24638;DHT22;12773;50.162;8.548;2023-07-13T10:28:42;26.60;62.20
24638;DHT22;12773;50.162;8.548;2023-07-13T10:31:32;26.50;62.80
24638;DHT22;12773;50.162;8.548;2023-07-13T10:34:21;26.30;61.40
24638;DHT22;12773;50.162;8.548;2023-07-13T10:37:18;26.40;62.60
24638;DHT22;12773;50.162;8.548;2023-07-13T10:40:12;26.80;61.30
24638;DHT22;12773;50.162;8.548;2023-07-13T10:42:58;26.80;59.90
24638;DHT22;12773;50.162;8.548;2023-07-13T10:45:48;26.70;60.60
24638;DHT22;12773;50.162;8.548;2023-07-13T10:48:37;26.90;60.90
24638;DHT22;12773;50.162;8.548;2023-07-13T10:51:26;27.00;60.00
24638;DHT22;12773;50.162;8.548;2023-07-13T10:54:17;27.10;58.90
24638;DHT22;12773;50.162;8.548;2023-07-13T10:57:21;27.30;58.60
24638;DHT22;12773;50.162;8.548;2023-07-13T11:00:17;27.50;58.00
24638;DHT22;12773;50.162;8.548;2023-07-13T11:03:10;27.90;57.80
24638;DHT22;12773;50.162;8.548;2023-07-13T11:06:18;27.60;58.30
24638;DHT22;12773;50.162;8.548;2023-07-13T11:09:30;27.40;57.50
24638;DHT22;12773;50.162;8.548;2023-07-13T11:15:10;26.80;58.20
24638;DHT22;12773;50.162;8.548;2023-07-13T11:17:55;26.80;59.00
24638;DHT22;12773;50.162;8.548;2023-07-13T11:20:49;26.40;58.40
24638;DHT22;12773;50.162;8.548;2023-07-13T11:23:37;26.30;59.20
24638;DHT22;12773;50.162;8.548;2023-07-13T11:29:38;26.30;57.00
24638;DHT22;12773;50.162;8.548;2023-07-13T11:32:30;26.70;57.40
24638;DHT22;12773;50.162;8.548;2023-07-13T11:35:26;27.10;57.80
24638;DHT22;12773;50.162;8.548;2023-07-13T11:38:35;26.90;58.00
24638;DHT22;12773;50.162;8.548;2023-07-13T11:44:16;26.90;57.60
24638;DHT22;12773;50.162;8.548;2023-07-13T11:47:14;27.10;57.10
24638;DHT22;12773;50.162;8.548;2023-07-13T11:49:59;26.90;56.50
24638;DHT22;12773;50.162;8.548;2023-07-13T11:52:50;27.20;55.70
24638;DHT22;12773;50.162;8.548;2023-07-13T11:55:40;27.30;56.10
24638;DHT22;12773;50.162;8.548;2023-07-13T11:58:28;26.90;55.10
24638;DHT22;12773;50.162;8.548;2023-07-13T12:01:20;26.80;55.80
24638;DHT22;12773;50.162;8.548;2023-07-13T12:04:23;26.80;55.30
24638;DHT22;12773;50.162;8.548;2023-07-13T12:07:16;26.70;56.20
24638;DHT22;12773;50.162;8.548;2023-07-13T12:10:30;26.70;56.70
24638;DHT22;12773;50.162;8.548;2023-07-13T12:13:21;26.70;57.10
24638;DHT22;12773;50.162;8.548;2023-07-13T12:16:26;27.00;56.90
24638;DHT22;12773;50.162;8.548;2023-07-13T12:19:23;26.80;57.60
24638;DHT22;12773;50.162;8.548;2023-07-13T12:22:12;26.60;56.90
24638;DHT22;12773;50.162;8.548;2023-07-13T12:25:01;26.90;57.40
24638;DHT22;12773;50.162;8.548;2023-07-13T12:27:50;27.20;56.40
24638;DHT22;12773;50.162;8.548;2023-07-13T12:30:38;27.80;55.70
24638;DHT22;12773;50.162;8.548;2023-07-13T12:33:28;27.70;55.00
24638;DHT22;12773;50.162;8.548;2023-07-13T12:36:19;27.40;55.10
24638;DHT22;12773;50.162;8.548;2023-07-13T12:39:36;27.50;56.40
24638;DHT22;12773;50.162;8.548;2023-07-13T12:42:22;27.60;55.80
24638;DHT22;12773;50.162;8.548;2023-07-13T12:45:28;27.80;55.30
24638;DHT22;12773;50.162;8.548;2023-07-13T12:48:16;27.50;55.10
24638;DHT22;12773;50.162;8.548;2023-07-13T12:51:08;27.20;54.90
24638;DHT22;12773;50.162;8.548;2023-07-13T12:54:12;27.20;54.30
24638;DHT22;12773;50.162;8.548;2023-07-13T12:56:56;27.30;55.50
24638;DHT22;12773;50.162;8.548;2023-07-13T12:59:45;27.20;54.70
24638;DHT22;12773;50.162;8.548;2023-07-13T13:02:34;27.20;54.80
24638;DHT22;12773;50.162;8.548;2023-07-13T13:05:26;27.00;54.40
24638;DHT22;12773;50.162;8.548;2023-07-13T13:08:24;27.00;55.20
24638;DHT22;12773;50.162;8.548;2023-07-13T13:11:12;27.00;55.20
24638;DHT22;12773;50.162;8.548;2023-07-13T13:14:01;27.10;55.30
24638;DHT22;12773;50.162;8.548;2023-07-13T13:16:51;27.10;55.90
24638;DHT22;12773;50.162;8.548;2023-07-13T13:19:39;26.80;55.20
24638;DHT22;12773;50.162;8.548;2023-07-13T13:22:27;26.80;56.00
24638;DHT22;12773;50.162;8.548;2023-07-13T13:25:22;27.00;55.30
24638;DHT22;12773;50.162;8.548;2023-07-13T13:28:18;27.30;55.60
24638;DHT22;12773;50.162;8.548;2023-07-13T13:31:08;27.20;54.80
24638;DHT22;12773;50.162;8.548;2023-07-13T13:33:57;26.90;54.30
24638;DHT22;12773;50.162;8.548;2023-07-13T13:36:46;26.90;54.70
24638;DHT22;12773;50.162;8.548;2023-07-13T13:39:36;26.90;55.20
24638;DHT22;12773;50.162;8.548;2023-07-13T13:42:26;26.90;54.80
24638;DHT22;12773;50.162;8.548;2023-07-13T13:45:15;26.90;55.30
24638;DHT22;12773;50.162;8.548;2023-07-13T13:48:13;27.10;56.60
24638;DHT22;12773;50.162;8.548;2023-07-13T13:50:57;27.40;57.00
24638;DHT22;12773;50.162;8.548;2023-07-13T13:53:47;27.70;56.60
24638;DHT22;12773;50.162;8.548;2023-07-13T13:56:34;27.40;56.00
24638;DHT22;12773;50.162;8.548;2023-07-13T13:59:22;27.30;56.80
24638;DHT22;12773;50.162;8.548;2023-07-13T14:02:21;27.50;56.70
24638;DHT22;12773;50.162;8.548;2023-07-13T14:05:09;27.50;56.40
24638;DHT22;12773;50.162;8.548;2023-07-13T14:07:55;27.40;56.50
24638;DHT22;12773;50.162;8.548;2023-07-13T14:10:48;27.00;57.10
24638;DHT22;12773;50.162;8.548;2023-07-13T14:13:39;26.90;56.80
24638;DHT22;12773;50.162;8.548;2023-07-13T14:16:29;27.30;57.50
24638;DHT22;12773;50.162;8.548;2023-07-13T14:19:17;27.30;57.10
24638;DHT22;12773;50.162;8.548;2023-07-13T14:22:06;27.00;57.00
24638;DHT22;12773;50.162;8.548;2023-07-13T14:24:54;27.10;57.60
24638;DHT22;12773;50.162;8.548;2023-07-13T14:27:44;27.00;57.10
24638;DHT22;12773;50.162;8.548;2023-07-13T14:30:32;26.90;56.90
24638;DHT22;12773;50.162;8.548;2023-07-13T14:33:20;27.10;57.00
24638;DHT22;12773;50.162;8.548;2023-07-13T14:36:35;27.20;56.70
24638;DHT22;12773;50.162;8.548;2023-07-13T14:39:24;27.20;56.40
24638;DHT22;12773;50.162;8.548;2023-07-13T14:42:12;27.40;58.30
24638;DHT22;12773;50.162;8.548;2023-07-13T14:44:59;27.70;57.70
24638;DHT22;12773;50.162;8.548;2023-07-13T14:47:47;27.50;55.50
24638;DHT22;12773;50.162;8.548;2023-07-13T14:50:35;27.50;56.10
24638;DHT22;12773;50.162;8.548;2023-07-13T14:53:26;27.20;56.80
24638;DHT22;12773;50.162;8.548;2023-07-13T14:56:15;27.00;55.50
24638;DHT22;12773;50.162;8.548;2023-07-13T14:59:03;27.20;56.30
24638;DHT22;12773;50.162;8.548;2023-07-13T15:01:51;27.50;56.30
24638;DHT22;12773;50.162;8.548;2023-07-13T15:04:39;27.60;55.90
24638;DHT22;12773;50.162;8.548;2023-07-13T15:07:26;27.50;56.30
24638;DHT22;12773;50.162;8.548;2023-07-13T15:10:22;27.50;55.80
24638;DHT22;12773;50.162;8.548;2023-07-13T15:13:16;27.30;55.50
24638;DHT22;12773;50.162;8.548;2023-07-13T15:16:05;27.40;54.80
24638;DHT22;12773;50.162;8.548;2023-07-13T15:18:54;27.20;55.10
24638;DHT22;12773;50.162;8.548;2023-07-13T15:21:41;27.20;55.70
24638;DHT22;12773;50.162;8.548;2023-07-13T15:24:29;27.20;55.10
24638;DHT22;12773;50.162;8.548;2023-07-13T15:27:16;27.00;54.40
24638;DHT22;12773;50.162;8.548;2023-07-13T15:30:04;27.00;55.20
24638;DHT22;12773;50.162;8.548;2023-07-13T15:32:52;27.10;54.70
24638;DHT22;12773;50.162;8.548;2023-07-13T15:35:40;27.10;54.80
24638;DHT22;12773;50.162;8.548;2023-07-13T15:38:30;27.30;54.60
24638;DHT22;12773;50.162;8.548;2023-07-13T15:41:26;27.20;54.30
24638;DHT22;12773;50.162;8.548;2023-07-13T15:44:25;27.30;55.00
24638;DHT22;12773;50.162;8.548;2023-07-13T15:47:14;27.70;55.20
24638;DHT22;12773;50.162;8.548;2023-07-13T15:50:02;27.60;54.30
24638;DHT22;12773;50.162;8.548;2023-07-13T15:52:52;27.40;54.40
24638;DHT22;12773;50.162;8.548;2023-07-13T15:55:41;27.40;54.30
24638;DHT22;12773;50.162;8.548;2023-07-13T15:58:28;27.30;55.10
24638;DHT22;12773;50.162;8.548;2023-07-13T16:01:16;27.40;54.00
24638;DHT22;12773;50.162;8.548;2023-07-13T16:04:04;27.60;55.00
24638;DHT22;12773;50.162;8.548;2023-07-13T16:06:53;27.50;54.40
24638;DHT22;12773;50.162;8.548;2023-07-13T16:09:41;27.50;54.60
24638;DHT22;12773;50.162;8.548;2023-07-13T16:12:29;27.30;54.00
24638;DHT22;12773;50.162;8.548;2023-07-13T16:15:18;27.40;54.50
24638;DHT22;12773;50.162;8.548;2023-07-13T16:18:06;27.60;55.00
24638;DHT22;12773;50.162;8.548;2023-07-13T16:20:53;27.90;54.60
24638;DHT22;12773;50.162;8.548;2023-07-13T16:23:44;27.90;53.70
24638;DHT22;12773;50.162;8.548;2023-07-13T16:26:34;27.80;54.50
24638;DHT22;12773;50.162;8.548;2023-07-13T16:29:31;27.90;53.80
24638;DHT22;12773;50.162;8.548;2023-07-13T16:32:18;28.20;54.20
24638;DHT22;12773;50.162;8.548;2023-07-13T16:35:08;28.00;53.10
24638;DHT22;12773;50.162;8.548;2023-07-13T16:37:55;28.40;53.60
24638;DHT22;12773;50.162;8.548;2023-07-13T16:40:45;28.70;52.90
24638;DHT22;12773;50.162;8.548;2023-07-13T16:43:34;28.90;53.20
24638;DHT22;12773;50.162;8.548;2023-07-13T16:46:23;28.70;51.90
24638;DHT22;12773;50.162;8.548;2023-07-13T16:49:20;28.80;52.60
24638;DHT22;12773;50.162;8.548;2023-07-13T16:52:02;28.70;51.90
24638;DHT22;12773;50.162;8.548;2023-07-13T16:54:50;28.30;52.50
24638;DHT22;12773;50.162;8.548;2023-07-13T16:57:38;28.00;52.30
24638;DHT22;12773;50.162;8.548;2023-07-13T17:00:30;27.70;52.50
24638;DHT22;12773;50.162;8.548;2023-07-13T17:03:18;27.60;52.30
24638;DHT22;12773;50.162;8.548;2023-07-13T17:06:20;27.70;53.50
24638;DHT22;12773;50.162;8.548;2023-07-13T17:09:11;27.60;53.20
24638;DHT22;12773;50.162;8.548;2023-07-13T17:11:59;27.60;53.70
24638;DHT22;12773;50.162;8.548;2023-07-13T17:14:47;27.40;53.60
24638;DHT22;12773;50.162;8.548;2023-07-13T17:17:36;27.40;54.20
24638;DHT22;12773;50.162;8.548;2023-07-13T17:20:29;27.50;54.40
24638;DHT22;12773;50.162;8.548;2023-07-13T17:23:24;28.00;53.50
24638;DHT22;12773;50.162;8.548;2023-07-13T17:26:08;28.20;52.50
24638;DHT22;12773;50.162;8.548;2023-07-13T17:28:56;29.00;52.80
24638;DHT22;12773;50.162;8.548;2023-07-13T17:31:44;29.60;51.60
24638;DHT22;12773;50.162;8.548;2023-07-13T17:34:36;29.70;51.70
24638;DHT22;12773;50.162;8.548;2023-07-13T17:37:25;30.00;51.20
24638;DHT22;12773;50.162;8.548;2023-07-13T17:40:16;29.90;50.80
24638;DHT22;12773;50.162;8.548;2023-07-13T17:43:04;30.00;50.20
24638;DHT22;12773;50.162;8.548;2023-07-13T17:45:54;29.70;49.80
24638;DHT22;12773;50.162;8.548;2023-07-13T17:48:46;29.40;50.30
24638;DHT22;12773;50.162;8.548;2023-07-13T17:51:34;29.30;50.80
24638;DHT22;12773;50.162;8.548;2023-07-13T17:54:24;28.90;51.20
24638;DHT22;12773;50.162;8.548;2023-07-13T17:57:12;28.50;51.00
24638;DHT22;12773;50.162;8.548;2023-07-13T17:59:59;28.70;51.70
24638;DHT22;12773;50.162;8.548;2023-07-13T18:02:47;28.50;51.50
24638;DHT22;12773;50.162;8.548;2023-07-13T18:05:36;28.00;51.90
24638;DHT22;12773;50.162;8.548;2023-07-13T18:08:27;27.50;52.80
24638;DHT22;12773;50.162;8.548;2023-07-13T18:11:18;27.30;53.30
24638;DHT22;12773;50.162;8.548;2023-07-13T18:14:07;27.40;54.20
24638;DHT22;12773;50.162;8.548;2023-07-13T18:16:57;27.50;54.60